sensor_id;sensor_type;location;lat;lon;timestamp;temperature;humidity
45765;DHT22;31474;45.332;10.230;2023-06-14T00:01:24;22.40;99.90
45765;DHT22;31474;45.332;10.230;2023-06-14T00:03:50;22.40;99.90
45765;DHT22;31474;45.332;10.230;2023-06-14T00:06:16;22.40;99.90
45765;DHT22;31474;45.332;10.230;2023-06-14T00:08:42;22.40;99.90
45765;DHT22;31474;45.332;10.230;2023-06-14T00:11:08;22.50;99.90
45765;DHT22;31474;45.332;10.230;2023-06-14T00:13:33;22.50;99.90
45765;DHT22;31474;45.332;10.230;2023-06-14T00:15:59;22.50;99.90
45765;DHT22;31474;45.332;10.230;2023-06-14T00:18:25;22.40;99.90
45765;DHT22;31474;45.332;10.230;2023-06-14T00:20:52;22.40;99.90
45765;DHT22;31474;45.332;10.230;2023-06-14T00:23:18;22.40;99.90
45765;DHT22;31474;45.332;10.230;2023-06-14T00:25:43;22.30;99.90
45765;DHT22;31474;45.332;10.230;2023-06-14T00:28:09;22.40;99.90
45765;DHT22;31474;45.332;10.230;2023-06-14T00:30:35;22.40;99.90
45765;DHT22;31474;45.332;10.230;2023-06-14T00:33:01;22.40;99.90
45765;DHT22;31474;45.332;10.230;2023-06-14T00:35:26;22.40;99.90
45765;DHT22;31474;45.332;10.230;2023-06-14T00:37:52;22.50;99.90
45765;DHT22;31474;45.332;10.230;2023-06-14T00:40:20;22.50;99.90
45765;DHT22;31474;45.332;10.230;2023-06-14T00:42:46;22.40;99.90
45765;DHT22;31474;45.332;10.230;2023-06-14T00:45:11;22.50;99.90
45765;DHT22;31474;45.332;10.230;2023-06-14T00:47:38;22.50;99.90
45765;DHT22;31474;45.332;10.230;2023-06-14T00:50:07;22.50;99.90
45765;DHT22;31474;45.332;10.230;2023-06-14T00:52:33;22.60;99.90
45765;DHT22;31474;45.332;10.230;2023-06-14T00:55:00;22.50;99.90
45765;DHT22;31474;45.332;10.230;2023-06-14T00:57:26;22.60;99.90
45765;DHT22;31474;45.332;10.230;2023-06-14T00:59:52;22.60;99.90
45765;DHT22;31474;45.332;10.230;2023-06-14T01:02:18;22.60;99.90
45765;DHT22;31474;45.332;10.230;2023-06-14T01:04:46;22.60;99.90
45765;DHT22;31474;45.332;10.230;2023-06-14T01:07:41;22.40;99.90
45765;DHT22;31474;45.332;10.230;2023-06-14T01:10:12;22.40;99.90
45765;DHT22;31474;45.332;10.230;2023-06-14T01:15:25;22.30;99.90
45765;DHT22;31474;45.332;10.230;2023-06-14T01:17:52;22.30;99.90
45765;DHT22;31474;45.332;10.230;2023-06-14T01:20:22;22.30;99.90
45765;DHT22;31474;45.332;10.230;2023-06-14T01:22:52;22.30;99.90
45765;DHT22;31474;45.332;10.230;2023-06-14T01:25:19;22.20;99.90
45765;DHT22;31474;45.332;10.230;2023-06-14T01:27:58;22.20;99.90
45765;DHT22;31474;45.332;10.230;2023-06-14T01:30:25;22.20;99.90
45765;DHT22;31474;45.332;10.230;2023-06-14T01:32:53;22.20;99.90
45765;DHT22;31474;45.332;10.230;2023-06-14T01:35:20;22.20;99.90
45765;DHT22;31474;45.332;10.230;2023-06-14T01:37:48;22.20;99.90
45765;DHT22;31474;45.332;10.230;2023-06-14T01:40:15;22.20;99.90
45765;DHT22;31474;45.332;10.230;2023-06-14T01:42:41;22.10;99.90
45765;DHT22;31474;45.332;10.230;2023-06-14T01:45:09;22.20;99.90
45765;DHT22;31474;45.332;10.230;2023-06-14T01:47:36;22.10;99.90
45765;DHT22;31474;45.332;10.230;2023-06-14T01:50:03;22.20;99.90
45765;DHT22;31474;45.332;10.230;2023-06-14T01:52:29;22.20;99.90
45765;DHT22;31474;45.332;10.230;2023-06-14T01:54:55;22.20;99.90
45765;DHT22;31474;45.332;10.230;2023-06-14T01:57:21;22.20;99.90
45765;DHT22;31474;45.332;10.230;2023-06-14T01:59:47;22.20;99.90
45765;DHT22;31474;45.332;10.230;2023-06-14T02:02:14;22.20;99.90
45765;DHT22;31474;45.332;10.230;2023-06-14T02:04:40;22.20;99.90
45765;DHT22;31474;45.332;10.230;2023-06-14T02:07:06;22.20;99.90
45765;DHT22;31474;45.332;10.230;2023-06-14T02:09:33;22.20;99.90
45765;DHT22;31474;45.332;10.230;2023-06-14T02:11:59;22.10;99.90
45765;DHT22;31474;45.332;10.230;2023-06-14T02:14:25;22.10;99.90
45765;DHT22;31474;45.332;10.230;2023-06-14T02:16:51;22.10;99.90
45765;DHT22;31474;45.332;10.230;2023-06-14T02:19:19;22.10;99.90
45765;DHT22;31474;45.332;10.230;2023-06-14T02:21:45;22.10;99.90
45765;DHT22;31474;45.332;10.230;2023-06-14T02:24:11;22.10;99.90
45765;DHT22;31474;45.332;10.230;2023-06-14T02:26:37;22.00;99.90
45765;DHT22;31474;45.332;10.230;2023-06-14T02:29:07;22.10;99.90
45765;DHT22;31474;45.332;10.230;2023-06-14T02:31:35;22.10;99.90
45765;DHT22;31474;45.332;10.230;2023-06-14T02:34:01;22.10;99.90
45765;DHT22;31474;45.332;10.230;2023-06-14T02:36:27;22.10;99.90
45765;DHT22;31474;45.332;10.230;2023-06-14T02:38:55;22.00;99.90
45765;DHT22;31474;45.332;10.230;2023-06-14T02:41:23;21.90;99.90
45765;DHT22;31474;45.332;10.230;2023-06-14T02:43:48;21.80;99.90
45765;DHT22;31474;45.332;10.230;2023-06-14T02:46:14;21.70;99.90
45765;DHT22;31474;45.332;10.230;2023-06-14T02:48:40;21.70;99.90
45765;DHT22;31474;45.332;10.230;2023-06-14T02:51:06;21.60;99.90
45765;DHT22;31474;45.332;10.230;2023-06-14T02:53:33;21.50;99.90
45765;DHT22;31474;45.332;10.230;2023-06-14T02:56:00;21.50;99.90
45765;DHT22;31474;45.332;10.230;2023-06-14T02:58:26;21.50;99.90
45765;DHT22;31474;45.332;10.230;2023-06-14T03:00:52;21.50;99.90
45765;DHT22;31474;45.332;10.230;2023-06-14T03:03:20;21.40;99.90
45765;DHT22;31474;45.332;10.230;2023-06-14T03:05:48;21.30;99.90
45765;DHT22;31474;45.332;10.230;2023-06-14T03:08:15;21.30;99.90
45765;DHT22;31474;45.332;10.230;2023-06-14T03:10:49;21.20;99.90
45765;DHT22;31474;45.332;10.230;2023-06-14T03:13:17;21.10;99.90
45765;DHT22;31474;45.332;10.230;2023-06-14T03:15:46;21.10;99.90
45765;DHT22;31474;45.332;10.230;2023-06-14T03:18:13;21.10;99.90
45765;DHT22;31474;45.332;10.230;2023-06-14T03:20:40;21.00;99.90
45765;DHT22;31474;45.332;10.230;2023-06-14T03:23:06;21.00;99.90
45765;DHT22;31474;45.332;10.230;2023-06-14T03:25:32;20.90;99.90
45765;DHT22;31474;45.332;10.230;2023-06-14T03:28:01;20.90;99.90
45765;DHT22;31474;45.332;10.230;2023-06-14T03:30:27;20.90;99.90
45765;DHT22;31474;45.332;10.230;2023-06-14T03:32:53;20.90;99.90
45765;DHT22;31474;45.332;10.230;2023-06-14T03:35:21;20.90;99.90
45765;DHT22;31474;45.332;10.230;2023-06-14T03:37:47;20.90;99.90
45765;DHT22;31474;45.332;10.230;2023-06-14T03:40:14;20.90;99.90
45765;DHT22;31474;45.332;10.230;2023-06-14T03:42:40;20.90;99.90
45765;DHT22;31474;45.332;10.230;2023-06-14T03:45:07;20.80;99.90
45765;DHT22;31474;45.332;10.230;2023-06-14T03:47:33;20.80;99.90
45765;DHT22;31474;45.332;10.230;2023-06-14T03:49:59;20.80;99.90
45765;DHT22;31474;45.332;10.230;2023-06-14T03:52:25;20.90;99.90
45765;DHT22;31474;45.332;10.230;2023-06-14T03:54:51;20.80;99.90
45765;DHT22;31474;45.332;10.230;2023-06-14T03:57:17;20.80;99.90
45765;DHT22;31474;45.332;10.230;2023-06-14T03:59:43;20.80;99.90
45765;DHT22;31474;45.332;10.230;2023-06-14T04:02:09;20.90;99.90
45765;DHT22;31474;45.332;10.230;2023-06-14T04:04:35;20.90;99.90
45765;DHT22;31474;45.332;10.230;2023-06-14T04:07:01;21.00;99.90
45765;DHT22;31474;45.332;10.230;2023-06-14T04:09:29;20.90;99.90
45765;DHT22;31474;45.332;10.230;2023-06-14T04:11:55;21.00;99.90
45765;DHT22;31474;45.332;10.230;2023-06-14T04:14:21;21.10;99.90
45765;DHT22;31474;45.332;10.230;2023-06-14T04:16:48;21.00;99.90
45765;DHT22;31474;45.332;10.230;2023-06-14T04:19:15;21.00;99.90
45765;DHT22;31474;45.332;10.230;2023-06-14T04:21:41;21.00;99.90
45765;DHT22;31474;45.332;10.230;2023-06-14T04:24:07;21.10;99.90
45765;DHT22;31474;45.332;10.230;2023-06-14T04:26:41;21.20;99.90
45765;DHT22;31474;45.332;10.230;2023-06-14T04:29:10;21.30;99.90
45765;DHT22;31474;45.332;10.230;2023-06-14T04:31:40;21.30;99.90
45765;DHT22;31474;45.332;10.230;2023-06-14T04:34:06;21.40;99.90
45765;DHT22;31474;45.332;10.230;2023-06-14T04:36:33;21.30;99.90
45765;DHT22;31474;45.332;10.230;2023-06-14T04:39:00;21.20;99.90
45765;DHT22;31474;45.332;10.230;2023-06-14T04:41:28;21.30;99.90
45765;DHT22;31474;45.332;10.230;2023-06-14T04:44:00;21.30;99.90
45765;DHT22;31474;45.332;10.230;2023-06-14T04:46:30;21.30;99.90
45765;DHT22;31474;45.332;10.230;2023-06-14T04:48:57;21.30;99.90
45765;DHT22;31474;45.332;10.230;2023-06-14T04:51:23;21.30;99.90
45765;DHT22;31474;45.332;10.230;2023-06-14T04:53:55;21.30;99.90
45765;DHT22;31474;45.332;10.230;2023-06-14T04:56:22;21.40;99.90
45765;DHT22;31474;45.332;10.230;2023-06-14T04:58:48;21.40;99.90
45765;DHT22;31474;45.332;10.230;2023-06-14T05:01:14;21.40;99.90
45765;DHT22;31474;45.332;10.230;2023-06-14T05:03:40;21.40;99.90
45765;DHT22;31474;45.332;10.230;2023-06-14T05:06:06;21.50;99.90
45765;DHT22;31474;45.332;10.230;2023-06-14T05:08:32;21.50;99.90
45765;DHT22;31474;45.332;10.230;2023-06-14T05:10:57;21.40;99.90
45765;DHT22;31474;45.332;10.230;2023-06-14T05:13:23;21.30;99.90
45765;DHT22;31474;45.332;10.230;2023-06-14T05:15:49;21.20;99.90
45765;DHT22;31474;45.332;10.230;2023-06-14T05:18:15;21.30;99.90
45765;DHT22;31474;45.332;10.230;2023-06-14T05:20:41;21.20;99.90
45765;DHT22;31474;45.332;10.230;2023-06-14T05:23:08;21.20;99.90
45765;DHT22;31474;45.332;10.230;2023-06-14T05:25:34;21.20;99.90
45765;DHT22;31474;45.332;10.230;2023-06-14T05:27:59;21.20;99.90
45765;DHT22;31474;45.332;10.230;2023-06-14T05:30:25;21.00;99.90
45765;DHT22;31474;45.332;10.230;2023-06-14T05:32:51;21.00;99.90
45765;DHT22;31474;45.332;10.230;2023-06-14T05:35:18;20.90;99.90
45765;DHT22;31474;45.332;10.230;2023-06-14T05:37:43;20.90;99.90
45765;DHT22;31474;45.332;10.230;2023-06-14T05:40:10;21.00;99.90
45765;DHT22;31474;45.332;10.230;2023-06-14T05:42:35;21.00;99.90
45765;DHT22;31474;45.332;10.230;2023-06-14T05:45:01;21.00;99.90
45765;DHT22;31474;45.332;10.230;2023-06-14T05:47:27;21.00;99.90
45765;DHT22;31474;45.332;10.230;2023-06-14T05:49:53;21.00;99.90
45765;DHT22;31474;45.332;10.230;2023-06-14T05:52:20;21.10;99.90
45765;DHT22;31474;45.332;10.230;2023-06-14T05:54:46;21.20;99.90
45765;DHT22;31474;45.332;10.230;2023-06-14T05:57:12;21.20;99.90
45765;DHT22;31474;45.332;10.230;2023-06-14T05:59:37;21.20;99.90
45765;DHT22;31474;45.332;10.230;2023-06-14T06:02:03;21.30;99.90
45765;DHT22;31474;45.332;10.230;2023-06-14T06:04:29;21.30;99.90
45765;DHT22;31474;45.332;10.230;2023-06-14T06:06:54;21.20;99.90
45765;DHT22;31474;45.332;10.230;2023-06-14T06:09:20;21.20;99.90
45765;DHT22;31474;45.332;10.230;2023-06-14T06:11:46;21.20;99.90
45765;DHT22;31474;45.332;10.230;2023-06-14T06:14:11;21.10;99.90
45765;DHT22;31474;45.332;10.230;2023-06-14T06:16:37;21.20;99.90
45765;DHT22;31474;45.332;10.230;2023-06-14T06:19:03;21.20;99.90
45765;DHT22;31474;45.332;10.230;2023-06-14T06:21:28;21.30;99.90
45765;DHT22;31474;45.332;10.230;2023-06-14T06:23:54;21.30;99.90
45765;DHT22;31474;45.332;10.230;2023-06-14T06:26:21;21.30;99.90
45765;DHT22;31474;45.332;10.230;2023-06-14T06:28:47;21.20;99.90
45765;DHT22;31474;45.332;10.230;2023-06-14T06:31:13;21.20;99.90
45765;DHT22;31474;45.332;10.230;2023-06-14T06:33:39;21.20;99.90
45765;DHT22;31474;45.332;10.230;2023-06-14T06:36:05;21.20;99.90
45765;DHT22;31474;45.332;10.230;2023-06-14T06:38:31;21.20;99.90
45765;DHT22;31474;45.332;10.230;2023-06-14T06:40:56;21.30;99.90
45765;DHT22;31474;45.332;10.230;2023-06-14T06:43:22;21.30;99.90
45765;DHT22;31474;45.332;10.230;2023-06-14T06:45:48;21.30;99.90
45765;DHT22;31474;45.332;10.230;2023-06-14T06:48:13;21.40;99.90
45765;DHT22;31474;45.332;10.230;2023-06-14T06:50:39;21.40;99.90
45765;DHT22;31474;45.332;10.230;2023-06-14T06:53:05;21.40;99.90
45765;DHT22;31474;45.332;10.230;2023-06-14T06:55:32;21.50;99.90
45765;DHT22;31474;45.332;10.230;2023-06-14T06:57:57;21.60;99.90
45765;DHT22;31474;45.332;10.230;2023-06-14T07:00:24;21.50;99.90
45765;DHT22;31474;45.332;10.230;2023-06-14T07:02:49;21.60;99.90
45765;DHT22;31474;45.332;10.230;2023-06-14T07:05:16;21.60;99.90
45765;DHT22;31474;45.332;10.230;2023-06-14T07:07:41;21.60;99.90
45765;DHT22;31474;45.332;10.230;2023-06-14T07:10:07;21.60;99.90
45765;DHT22;31474;45.332;10.230;2023-06-14T07:12:33;21.60;99.90
45765;DHT22;31474;45.332;10.230;2023-06-14T07:15:01;21.60;99.90
45765;DHT22;31474;45.332;10.230;2023-06-14T07:17:27;21.60;99.90
45765;DHT22;31474;45.332;10.230;2023-06-14T07:19:52;21.60;99.90
45765;DHT22;31474;45.332;10.230;2023-06-14T07:22:19;21.70;99.90
45765;DHT22;31474;45.332;10.230;2023-06-14T07:24:45;21.70;99.90
45765;DHT22;31474;45.332;10.230;2023-06-14T07:27:10;21.70;99.90
45765;DHT22;31474;45.332;10.230;2023-06-14T07:29:36;21.80;99.90
45765;DHT22;31474;45.332;10.230;2023-06-14T07:32:02;21.80;99.90
45765;DHT22;31474;45.332;10.230;2023-06-14T07:34:28;21.70;99.90
45765;DHT22;31474;45.332;10.230;2023-06-14T07:36:54;21.80;99.90
45765;DHT22;31474;45.332;10.230;2023-06-14T07:39:19;21.80;99.90
45765;DHT22;31474;45.332;10.230;2023-06-14T07:41:45;21.80;99.90
45765;DHT22;31474;45.332;10.230;2023-06-14T07:44:11;21.80;99.90
45765;DHT22;31474;45.332;10.230;2023-06-14T07:46:38;21.90;99.90
45765;DHT22;31474;45.332;10.230;2023-06-14T07:49:03;21.90;99.90
45765;DHT22;31474;45.332;10.230;2023-06-14T07:51:29;22.00;99.90
45765;DHT22;31474;45.332;10.230;2023-06-14T07:53:55;22.00;99.90
45765;DHT22;31474;45.332;10.230;2023-06-14T07:56:21;22.00;99.90
45765;DHT22;31474;45.332;10.230;2023-06-14T07:58:47;21.90;99.90
45765;DHT22;31474;45.332;10.230;2023-06-14T08:01:13;22.00;99.90
45765;DHT22;31474;45.332;10.230;2023-06-14T08:03:39;22.00;99.90
45765;DHT22;31474;45.332;10.230;2023-06-14T08:06:05;21.90;99.90
45765;DHT22;31474;45.332;10.230;2023-06-14T08:08:31;22.00;99.90
45765;DHT22;31474;45.332;10.230;2023-06-14T08:10:57;22.00;99.90
45765;DHT22;31474;45.332;10.230;2023-06-14T08:13:23;22.00;99.90
45765;DHT22;31474;45.332;10.230;2023-06-14T08:15:48;22.00;99.90
45765;DHT22;31474;45.332;10.230;2023-06-14T08:18:14;22.10;99.90
45765;DHT22;31474;45.332;10.230;2023-06-14T08:20:40;22.20;99.90
45765;DHT22;31474;45.332;10.230;2023-06-14T08:23:05;22.20;99.90
45765;DHT22;31474;45.332;10.230;2023-06-14T08:25:31;22.20;99.90
45765;DHT22;31474;45.332;10.230;2023-06-14T08:27:57;22.20;99.90
45765;DHT22;31474;45.332;10.230;2023-06-14T08:30:22;22.20;99.90
45765;DHT22;31474;45.332;10.230;2023-06-14T08:32:48;22.20;99.90
45765;DHT22;31474;45.332;10.230;2023-06-14T08:35:14;22.20;99.90
45765;DHT22;31474;45.332;10.230;2023-06-14T08:37:40;22.20;99.90
45765;DHT22;31474;45.332;10.230;2023-06-14T08:40:18;22.30;99.90
45765;DHT22;31474;45.332;10.230;2023-06-14T08:42:45;22.30;99.90
45765;DHT22;31474;45.332;10.230;2023-06-14T08:45:12;22.30;99.90
45765;DHT22;31474;45.332;10.230;2023-06-14T08:47:38;22.30;99.90
45765;DHT22;31474;45.332;10.230;2023-06-14T08:50:04;22.30;99.90
45765;DHT22;31474;45.332;10.230;2023-06-14T08:52:35;22.30;99.90
45765;DHT22;31474;45.332;10.230;2023-06-14T08:55:06;22.40;99.90
45765;DHT22;31474;45.332;10.230;2023-06-14T08:57:36;22.30;99.90
45765;DHT22;31474;45.332;10.230;2023-06-14T09:00:03;22.40;99.90
45765;DHT22;31474;45.332;10.230;2023-06-14T09:02:37;22.40;99.90
45765;DHT22;31474;45.332;10.230;2023-06-14T09:05:03;22.30;99.90
45765;DHT22;31474;45.332;10.230;2023-06-14T09:07:29;22.40;99.90
45765;DHT22;31474;45.332;10.230;2023-06-14T09:10:11;22.30;99.90
45765;DHT22;31474;45.332;10.230;2023-06-14T09:12:38;22.30;99.90
45765;DHT22;31474;45.332;10.230;2023-06-14T09:15:05;22.40;99.90
45765;DHT22;31474;45.332;10.230;2023-06-14T09:17:38;22.40;99.90
45765;DHT22;31474;45.332;10.230;2023-06-14T09:20:07;22.50;99.90
45765;DHT22;31474;45.332;10.230;2023-06-14T09:22:39;22.40;99.90
45765;DHT22;31474;45.332;10.230;2023-06-14T09:25:06;22.40;99.90
45765;DHT22;31474;45.332;10.230;2023-06-14T09:27:32;22.40;99.90
45765;DHT22;31474;45.332;10.230;2023-06-14T09:29:58;22.40;99.90
45765;DHT22;31474;45.332;10.230;2023-06-14T09:32:24;22.40;99.90
45765;DHT22;31474;45.332;10.230;2023-06-14T09:34:50;22.40;99.90
45765;DHT22;31474;45.332;10.230;2023-06-14T09:37:29;22.40;99.90
45765;DHT22;31474;45.332;10.230;2023-06-14T09:39:55;22.50;99.90
45765;DHT22;31474;45.332;10.230;2023-06-14T09:42:21;22.40;99.90
45765;DHT22;31474;45.332;10.230;2023-06-14T09:44:48;22.40;99.90
45765;DHT22;31474;45.332;10.230;2023-06-14T09:47:17;22.40;99.90
45765;DHT22;31474;45.332;10.230;2023-06-14T09:49:43;22.50;99.90
45765;DHT22;31474;45.332;10.230;2023-06-14T09:52:14;22.50;99.90
45765;DHT22;31474;45.332;10.230;2023-06-14T09:54:41;22.60;99.90
45765;DHT22;31474;45.332;10.230;2023-06-14T09:57:21;22.60;99.90
45765;DHT22;31474;45.332;10.230;2023-06-14T09:59:48;22.60;99.90
45765;DHT22;31474;45.332;10.230;2023-06-14T10:02:26;22.60;99.90
45765;DHT22;31474;45.332;10.230;2023-06-14T10:04:57;22.70;99.90
45765;DHT22;31474;45.332;10.230;2023-06-14T10:07:26;22.70;99.90
45765;DHT22;31474;45.332;10.230;2023-06-14T10:09:55;22.80;99.90
45765;DHT22;31474;45.332;10.230;2023-06-14T10:12:21;22.80;99.90
45765;DHT22;31474;45.332;10.230;2023-06-14T10:14:51;22.80;99.90
45765;DHT22;31474;45.332;10.230;2023-06-14T10:20:21;22.80;99.90
45765;DHT22;31474;45.332;10.230;2023-06-14T10:22:58;23.00;99.90
45765;DHT22;31474;45.332;10.230;2023-06-14T10:25:29;23.00;99.90
45765;DHT22;31474;45.332;10.230;2023-06-14T10:33:35;23.20;99.90
45765;DHT22;31474;45.332;10.230;2023-06-14T10:41:27;23.30;99.90
45765;DHT22;31474;45.332;10.230;2023-06-14T10:46:38;23.60;99.90
45765;DHT22;31474;45.332;10.230;2023-06-14T10:49:04;23.70;99.90
45765;DHT22;31474;45.332;10.230;2023-06-14T10:51:44;23.70;99.90
45765;DHT22;31474;45.332;10.230;2023-06-14T10:54:14;23.70;99.90
45765;DHT22;31474;45.332;10.230;2023-06-14T10:56:53;23.80;99.90
45765;DHT22;31474;45.332;10.230;2023-06-14T10:59:20;23.90;99.90
45765;DHT22;31474;45.332;10.230;2023-06-14T11:10:36;24.10;99.90
45765;DHT22;31474;45.332;10.230;2023-06-14T11:13:09;24.00;99.50
45765;DHT22;31474;45.332;10.230;2023-06-14T11:15:38;24.10;99.90
45765;DHT22;31474;45.332;10.230;2023-06-14T11:18:07;24.30;99.90
45765;DHT22;31474;45.332;10.230;2023-06-14T11:20:35;24.30;99.40
45765;DHT22;31474;45.332;10.230;2023-06-14T11:23:02;24.40;99.90
45765;DHT22;31474;45.332;10.230;2023-06-14T11:25:28;24.50;99.90
45765;DHT22;31474;45.332;10.230;2023-06-14T11:27:54;24.50;99.90
45765;DHT22;31474;45.332;10.230;2023-06-14T11:30:24;24.60;99.90
45765;DHT22;31474;45.332;10.230;2023-06-14T11:32:51;24.70;99.90
45765;DHT22;31474;45.332;10.230;2023-06-14T11:35:19;24.90;99.90
45765;DHT22;31474;45.332;10.230;2023-06-14T11:37:47;25.10;99.70
45765;DHT22;31474;45.332;10.230;2023-06-14T11:40:14;25.50;99.70
45765;DHT22;31474;45.332;10.230;2023-06-14T11:42:41;25.40;97.70
45765;DHT22;31474;45.332;10.230;2023-06-14T11:45:10;25.50;98.60
45765;DHT22;31474;45.332;10.230;2023-06-14T11:47:38;25.50;98.80
45765;DHT22;31474;45.332;10.230;2023-06-14T11:50:05;25.40;97.10
45765;DHT22;31474;45.332;10.230;2023-06-14T11:52:32;25.30;98.00
45765;DHT22;31474;45.332;10.230;2023-06-14T11:54:58;25.40;96.60
45765;DHT22;31474;45.332;10.230;2023-06-14T11:57:24;25.50;97.90
45765;DHT22;31474;45.332;10.230;2023-06-14T11:59:51;25.30;96.00
45765;DHT22;31474;45.332;10.230;2023-06-14T12:02:18;25.30;96.20
45765;DHT22;31474;45.332;10.230;2023-06-14T12:04:46;25.40;98.20
45765;DHT22;31474;45.332;10.230;2023-06-14T12:07:13;25.60;97.90
45765;DHT22;31474;45.332;10.230;2023-06-14T12:12:24;25.60;95.80
45765;DHT22;31474;45.332;10.230;2023-06-14T12:14:54;25.80;96.70
45765;DHT22;31474;45.332;10.230;2023-06-14T12:17:20;25.90;96.50
45765;DHT22;31474;45.332;10.230;2023-06-14T12:19:46;25.90;95.70
45765;DHT22;31474;45.332;10.230;2023-06-14T12:22:13;25.90;96.60
45765;DHT22;31474;45.332;10.230;2023-06-14T12:24:42;25.80;95.60
45765;DHT22;31474;45.332;10.230;2023-06-14T12:27:08;25.70;96.90
45765;DHT22;31474;45.332;10.230;2023-06-14T12:29:33;25.80;96.30
45765;DHT22;31474;45.332;10.230;2023-06-14T12:31:59;25.90;96.80
45765;DHT22;31474;45.332;10.230;2023-06-14T12:34:26;25.90;96.90
45765;DHT22;31474;45.332;10.230;2023-06-14T12:36:55;25.90;96.80
45765;DHT22;31474;45.332;10.230;2023-06-14T12:39:21;26.10;97.60
45765;DHT22;31474;45.332;10.230;2023-06-14T12:41:48;26.40;96.70
45765;DHT22;31474;45.332;10.230;2023-06-14T12:44:14;26.20;95.30
45765;DHT22;31474;45.332;10.230;2023-06-14T12:46:41;26.20;96.70
45765;DHT22;31474;45.332;10.230;2023-06-14T12:49:09;26.20;96.70
45765;DHT22;31474;45.332;10.230;2023-06-14T12:51:35;26.30;96.90
45765;DHT22;31474;45.332;10.230;2023-06-14T12:54:01;26.30;97.00
45765;DHT22;31474;45.332;10.230;2023-06-14T12:56:26;26.50;96.60
45765;DHT22;31474;45.332;10.230;2023-06-14T12:58:52;26.60;96.50
45765;DHT22;31474;45.332;10.230;2023-06-14T13:01:18;26.50;95.60
45765;DHT22;31474;45.332;10.230;2023-06-14T13:03:45;26.60;95.60
45765;DHT22;31474;45.332;10.230;2023-06-14T13:06:10;26.60;93.20
45765;DHT22;31474;45.332;10.230;2023-06-14T13:08:36;26.50;92.40
45765;DHT22;31474;45.332;10.230;2023-06-14T13:11:02;26.50;93.60
45765;DHT22;31474;45.332;10.230;2023-06-14T13:13:27;26.50;92.00
45765;DHT22;31474;45.332;10.230;2023-06-14T13:15:53;26.50;91.40
45765;DHT22;31474;45.332;10.230;2023-06-14T13:18:18;26.70;93.90
45765;DHT22;31474;45.332;10.230;2023-06-14T13:20:46;26.80;93.50
45765;DHT22;31474;45.332;10.230;2023-06-14T13:23:11;26.90;93.70
45765;DHT22;31474;45.332;10.230;2023-06-14T13:25:38;27.00;93.50
45765;DHT22;31474;45.332;10.230;2023-06-14T13:28:04;26.80;91.90
45765;DHT22;31474;45.332;10.230;2023-06-14T13:30:31;26.80;93.60
45765;DHT22;31474;45.332;10.230;2023-06-14T13:32:57;27.00;93.80
45765;DHT22;31474;45.332;10.230;2023-06-14T13:35:24;27.20;93.60
45765;DHT22;31474;45.332;10.230;2023-06-14T13:37:50;27.10;93.50
45765;DHT22;31474;45.332;10.230;2023-06-14T13:40:15;27.10;93.70
45765;DHT22;31474;45.332;10.230;2023-06-14T13:42:41;27.10;93.90
45765;DHT22;31474;45.332;10.230;2023-06-14T13:45:08;27.10;94.20
45765;DHT22;31474;45.332;10.230;2023-06-14T13:47:34;27.10;94.10
45765;DHT22;31474;45.332;10.230;2023-06-14T13:50:00;27.10;94.50
45765;DHT22;31474;45.332;10.230;2023-06-14T13:52:25;27.10;94.30
45765;DHT22;31474;45.332;10.230;2023-06-14T13:54:51;27.10;94.60
45765;DHT22;31474;45.332;10.230;2023-06-14T13:57:17;27.20;95.10
45765;DHT22;31474;45.332;10.230;2023-06-14T13:59:43;27.20;94.60
45765;DHT22;31474;45.332;10.230;2023-06-14T14:02:10;27.20;95.20
45765;DHT22;31474;45.332;10.230;2023-06-14T14:04:37;27.20;94.50
45765;DHT22;31474;45.332;10.230;2023-06-14T14:07:04;27.10;94.10
45765;DHT22;31474;45.332;10.230;2023-06-14T14:09:32;27.10;94.80
45765;DHT22;31474;45.332;10.230;2023-06-14T14:12:01;27.10;94.50
45765;DHT22;31474;45.332;10.230;2023-06-14T14:14:28;27.10;92.90
45765;DHT22;31474;45.332;10.230;2023-06-14T14:16:54;27.20;95.00
45765;DHT22;31474;45.332;10.230;2023-06-14T14:19:21;27.20;94.70
45765;DHT22;31474;45.332;10.230;2023-06-14T14:21:47;27.30;95.20
45765;DHT22;31474;45.332;10.230;2023-06-14T14:24:13;27.40;95.90
45765;DHT22;31474;45.332;10.230;2023-06-14T14:26:39;27.40;95.20
45765;DHT22;31474;45.332;10.230;2023-06-14T14:29:04;27.50;95.30
45765;DHT22;31474;45.332;10.230;2023-06-14T14:31:30;27.50;94.90
45765;DHT22;31474;45.332;10.230;2023-06-14T14:33:56;27.30;95.20
45765;DHT22;31474;45.332;10.230;2023-06-14T14:36:21;27.30;95.10
45765;DHT22;31474;45.332;10.230;2023-06-14T14:38:47;27.10;94.60
45765;DHT22;31474;45.332;10.230;2023-06-14T14:41:13;27.20;94.60
45765;DHT22;31474;45.332;10.230;2023-06-14T14:43:39;27.10;94.10
45765;DHT22;31474;45.332;10.230;2023-06-14T14:46:05;27.20;94.30
45765;DHT22;31474;45.332;10.230;2023-06-14T14:48:31;27.10;94.40
45765;DHT22;31474;45.332;10.230;2023-06-14T14:50:57;27.00;94.20
45765;DHT22;31474;45.332;10.230;2023-06-14T14:53:22;26.90;94.00
45765;DHT22;31474;45.332;10.230;2023-06-14T14:55:48;26.90;94.50
45765;DHT22;31474;45.332;10.230;2023-06-14T14:58:14;26.90;94.40
45765;DHT22;31474;45.332;10.230;2023-06-14T15:00:44;26.80;93.20
45765;DHT22;31474;45.332;10.230;2023-06-14T15:03:10;26.80;92.90
45765;DHT22;31474;45.332;10.230;2023-06-14T15:05:36;26.90;92.10
45765;DHT22;31474;45.332;10.230;2023-06-14T15:08:03;27.00;93.70
45765;DHT22;31474;45.332;10.230;2023-06-14T15:10:28;27.00;92.50
45765;DHT22;31474;45.332;10.230;2023-06-14T15:12:54;27.10;93.30
45765;DHT22;31474;45.332;10.230;2023-06-14T15:15:21;27.20;93.40
45765;DHT22;31474;45.332;10.230;2023-06-14T15:17:47;27.10;93.00
45765;DHT22;31474;45.332;10.230;2023-06-14T15:20:13;27.20;93.80
45765;DHT22;31474;45.332;10.230;2023-06-14T15:22:40;27.00;93.20
45765;DHT22;31474;45.332;10.230;2023-06-14T15:25:06;26.90;93.80
45765;DHT22;31474;45.332;10.230;2023-06-14T15:27:31;26.90;93.90
45765;DHT22;31474;45.332;10.230;2023-06-14T15:29:57;26.90;94.00
45765;DHT22;31474;45.332;10.230;2023-06-14T15:32:23;27.00;93.40
45765;DHT22;31474;45.332;10.230;2023-06-14T15:34:48;27.00;93.60
45765;DHT22;31474;45.332;10.230;2023-06-14T15:37:14;27.00;93.30
45765;DHT22;31474;45.332;10.230;2023-06-14T15:39:40;27.00;93.40
45765;DHT22;31474;45.332;10.230;2023-06-14T15:42:06;26.90;92.60
45765;DHT22;31474;45.332;10.230;2023-06-14T15:44:33;26.80;93.40